Main page
METAR-TAF:

METAR-TAF

Airports :

Al-Ahsa International Airport

Al-Hasa, Saudi Arabia

latitude: 25-18N, longitude: 049-29E, elevation: 179 m

Current weather observation

The report was made 1 hour and 10 minutes ago, at 19:00 UTC
Wind 4 kt from the Southwest
Temperature 36°C
Humidity 14%
Pressure 999 hPa
Visibility 10 km or more
no clouds below 1500 m and no cumulonimbus

METAR: OEAH 251900Z 22004KT CAVOK 36/04 Q0999 NOSIG

Time: 23:10 (20:10 UTC)

Forecast

The report was made 10 hours and 0 minutes ago, at 10:10 UTC
Forecast valid from 25 at 12 UTC to 26 at 18 UTC
Wind 10 kt from the North
Visibility: 8000 m
Becoming
from 25 at 18 UTC to 25 at 20 UTC
Wind 3 kt from variable directions
Becoming
from 26 at 03 UTC to 26 at 05 UTC
Wind 12 kt from the West
Becoming
from 26 at 13 UTC to 26 at 15 UTC
Wind 12 kt from the North

TAF: OEAH 251010Z 2512/2618 01010KT 8000 NSC BECMG 2518/2520 VRB03KT BECMG 2603/2605 28012KT BECMG 2613/2615 01012KT

Weather observations and forecasts of more than 4000 airports (METAR and TAF reports).

The available stations are represented by yellow and red dots on the map.

Hover mouse over dot to see the name of the station.

Then click to see weather observations and forecasts.

To change the map : click on the green buttons with a black cross to zoom in, on the green button with a dash to zoom out, or on the green arrows for adjacent maps.


METAR-TAF: